Time,TemperatureF,DewpointF,PressureIn,WindDirection,WindDirectionDegrees,WindSpeedMPH,WindSpeedGustMPH,Humidity,HourlyPrecipIn,Conditions,Clouds,dailyrainin,SolarRadiationWatts/m^2,SoftwareType,DateUTC
2013-11-08 00:00:00,40.1,27.7,29.69,NW,307,10.4,13.0,61,0.00,CLR,FEW,0.10,0.0,WeatherDisplay:10.37,2013-11-08 05:00:00,
2013-11-08 00:01:00,40.1,27.3,29.69,NW,307,12.4,19.6,60,0.00,RA,FEW,0.00,0.0,WeatherDisplay:10.37,2013-11-08 05:01:00,
2013-11-08 00:07:00,40.0,27.6,29.69,NW,307,5.0,11.5,61,0.00,RA,FEW,0.00,0.0,WeatherDisplay:10.37,2013-11-08 05:07:00,
2013-11-08 00:12:00,40.0,27.2,29.69,NW,307,6.6,9.2,60,0.00,CLR,FEW,0.00,0.0,WeatherDisplay:10.37,2013-11-08 05:12:00,
2013-11-08 00:17:00,39.8,27.0,29.69,NW,307,7.3,10.4,60,0.00,CLR,FEW,0.00,0.0,WeatherDisplay:10.37,2013-11-08 05:17:00,
2013-11-08 00:22:00,39.7,26.9,29.69,NW,307,12.6,15.0,60,0.00,CLR,FEW,0.00,0.0,WeatherDisplay:10.37,2013-11-08 05:22:00,
2013-11-08 00:27:00,39.7,27.3,29.69,NW,307,5.2,11.5,61,0.00,CLR,FEW,0.00,0.0,WeatherDisplay:10.37,2013-11-08 05:27:00,
2013-11-08 00:32:00,39.7,28.1,29.69,NW,307,9.2,11.5,63,0.00,CLR,FEW,0.00,0.0,WeatherDisplay:10.37,2013-11-08 05:32:00,
2013-11-08 00:37:00,39.6,27.6,29.69,NW,307,4.0,6.9,62,0.00,CLR,FEW,0.00,0.0,WeatherDisplay:10.37,2013-11-08 05:37:00,
2013-11-08 00:42:00,39.5,27.2,29.69,NW,307,3.2,8.1,61,0.00,CLR,FEW,0.00,0.0,WeatherDisplay:10.37,2013-11-08 05:42:00,
2013-11-08 00:47:00,39.6,28.0,29.69,NW,307,10.5,15.0,63,0.00,CLR,FEW,0.00,0.0,WeatherDisplay:10.37,2013-11-08 05:47:00,
2013-11-08 00:52:00,39.6,27.6,29.69,NW,307,4.2,7.0,62,0.00,CLR,FEW,0.00,0.0,WeatherDisplay:10.37,2013-11-08 05:52:00,
2013-11-08 00:57:00,39.5,27.9,29.69,NW,307,5.7,9.2,63,0.00,CLR,FEW,0.00,0.0,WeatherDisplay:10.37,2013-11-08 05:57:00,
2013-11-08 01:02:00,39.5,27.9,29.69,NW,307,10.7,15.0,63,0.00,CLR,FEW,0.00,0.0,WeatherDisplay:10.37,2013-11-08 06:02:00,
2013-11-08 01:07:00,39.5,27.5,29.69,NW,307,3.4,5.8,62,0.00,CLR,FEW,0.00,0.0,WeatherDisplay:10.37,2013-11-08 06:07:00,
2013-11-08 01:12:00,39.4,27.8,29.69,NW,307,7.0,10.4,63,0.00,CLR,FEW,0.00,0.0,WeatherDisplay:10.37,2013-11-08 06:12:00,
2013-11-08 01:17:00,39.4,27.5,29.69,NW,307,7.6,12.7,62,0.00,CLR,FEW,0.00,0.0,WeatherDisplay:10.37,2013-11-08 06:17:00,
2013-11-08 01:22:00,39.3,27.4,29.69,NW,307,4.9,10.4,62,0.00,CLR,FEW,0.00,0.0,WeatherDisplay:10.37,2013-11-08 06:22:00,
2013-11-08 01:27:00,39.3,27.4,29.70,NW,307,2.3,4.6,62,0.00,CLR,FEW,0.00,0.0,WeatherDisplay:10.37,2013-11-08 06:27:00,
2013-11-08 01:32:00,39.3,27.4,29.70,NW,307,12.0,17.3,62,0.00,CLR,FEW,0.00,0.0,WeatherDisplay:10.37,2013-11-08 06:32:00,
2013-11-08 01:37:00,39.3,27.4,29.70,NW,307,5.7,11.5,62,0.00,CLR,FEW,0.00,0.0,WeatherDisplay:10.37,2013-11-08 06:37:00,
2013-11-08 01:42:00,39.3,26.6,29.70,NW,307,5.5,10.4,60,0.00,CLR,FEW,0.00,0.0,WeatherDisplay:10.37,2013-11-08 06:42:00,
2013-11-08 01:47:00,39.4,27.1,29.70,NW,307,5.3,10.0,61,0.00,CLR,FEW,0.00,0.0,WeatherDisplay:10.37,2013-11-08 06:47:00,
2013-11-08 01:52:00,39.3,26.6,29.70,NW,307,2.4,3.5,60,0.00,CLR,FEW,0.00,0.0,WeatherDisplay:10.37,2013-11-08 06:52:00,
2013-11-08 01:57:00,39.3,26.6,29.69,NW,307,8.2,15.0,60,0.00,CLR,FEW,0.00,0.0,WeatherDisplay:10.37,2013-11-08 06:57:00,
2013-11-08 02:02:00,39.4,26.7,29.69,NW,307,8.9,12.7,60,0.00,CLR,FEW,0.00,0.0,WeatherDisplay:10.37,2013-11-08 07:02:00,
2013-11-08 02:07:00,39.4,26.7,29.69,NW,307,9.8,15.0,60,0.00,CLR,FEW,0.00,0.0,WeatherDisplay:10.37,2013-11-08 07:07:00,
2013-11-08 02:12:00,39.4,26.7,29.69,NW,307,7.5,11.5,60,0.00,CLR,FEW,0.00,0.0,WeatherDisplay:10.37,2013-11-08 07:12:00,
2013-11-08 02:17:00,39.4,26.2,29.69,NW,307,4.5,8.1,59,0.00,CLR,FEW,0.00,0.0,WeatherDisplay:10.37,2013-11-08 07:17:00,
2013-11-08 02:22:00,39.3,26.2,29.69,NW,307,7.6,12.7,59,0.00,CLR,FEW,0.00,0.0,WeatherDisplay:10.37,2013-11-08 07:22:00,
2013-11-08 02:27:00,39.3,26.6,29.69,NW,307,10.7,13.8,60,0.00,CLR,FEW,0.00,0.0,WeatherDisplay:10.37,2013-11-08 07:27:00,
2013-11-08 02:32:00,39.3,26.6,29.69,NW,307,4.8,9.0,60,0.00,CLR,FEW,0.00,0.0,WeatherDisplay:10.37,2013-11-08 07:32:00,
2013-11-08 02:37:00,39.3,26.6,29.69,NW,307,5.6,10.4,60,0.00,CLR,FEW,0.00,0.0,WeatherDisplay:10.37,2013-11-08 07:37:00,
2013-11-08 02:42:00,39.2,26.9,29.70,NW,307,8.1,12.7,61,0.00,CLR,FEW,0.00,0.0,WeatherDisplay:10.37,2013-11-08 07:42:00,
2013-11-08 02:47:00,39.2,26.9,29.70,NW,307,5.9,13.0,61,0.00,CLR,FEW,0.00,0.0,WeatherDisplay:10.37,2013-11-08 07:47:00,
2013-11-08 02:52:00,39.2,26.5,29.70,NW,307,8.6,12.7,60,0.00,CLR,FEW,0.00,0.0,WeatherDisplay:10.37,2013-11-08 07:52:00,
2013-11-08 02:57:00,39.2,26.5,29.70,NW,307,3.4,4.6,60,0.00,CLR,FEW,0.00,0.0,WeatherDisplay:10.37,2013-11-08 07:57:00,
2013-11-08 03:02:00,39.1,26.0,29.70,NW,307,0.7,2.3,59,0.00,CLR,FEW,0.00,0.0,WeatherDisplay:10.37,2013-11-08 08:02:00,
2013-11-08 03:07:00,39.0,26.3,29.70,NW,307,0.0,0.0,60,0.00,CLR,FEW,0.00,0.0,WeatherDisplay:10.37,2013-11-08 08:07:00,
2013-11-08 03:12:00,38.9,25.8,29.70,NW,307,0.0,0.0,59,0.00,CLR,FEW,0.00,0.0,WeatherDisplay:10.37,2013-11-08 08:12:00,
2013-11-08 03:17:00,38.6,25.9,29.70,NW,307,0.0,0.0,60,0.00,CLR,FEW,0.00,0.0,WeatherDisplay:10.37,2013-11-08 08:17:00,
2013-11-08 03:22:00,38.3,25.6,29.70,NW,307,0.1,1.2,60,0.00,CLR,FEW,0.00,0.0,WeatherDisplay:10.37,2013-11-08 08:22:00,
2013-11-08 03:27:00,38.0,25.7,29.70,NW,307,0.4,1.2,61,0.00,CLR,FEW,0.00,0.0,WeatherDisplay:10.37,2013-11-08 08:27:00,
2013-11-08 03:32:00,37.7,25.8,29.70,NW,307,0.0,1.2,62,0.00,CLR,FEW,0.00,0.0,WeatherDisplay:10.37,2013-11-08 08:32:00,
2013-11-08 03:37:00,37.3,26.6,29.70,NW,307,0.0,0.0,65,0.00,CLR,FEW,0.00,0.0,WeatherDisplay:10.37,2013-11-08 08:37:00,
2013-11-08 03:42:00,36.8,26.5,29.71,NW,307,0.0,0.0,66,0.00,CLR,FEW,0.00,0.0,WeatherDisplay:10.37,2013-11-08 08:42:00,
2013-11-08 03:47:00,36.3,26.4,29.71,NW,307,0.0,1.2,67,0.00,CLR,FEW,0.00,0.0,WeatherDisplay:10.37,2013-11-08 08:47:00,
2013-11-08 03:52:00,35.8,25.9,29.71,NW,307,0.6,2.3,67,0.00,CLR,FEW,0.00,0.0,WeatherDisplay:10.37,2013-11-08 08:52:00,
2013-11-08 03:57:00,35.5,26.0,29.71,NW,307,0.4,1.2,68,0.00,CLR,FEW,0.00,0.0,WeatherDisplay:10.37,2013-11-08 08:57:00,
2013-11-08 04:02:00,35.2,25.7,29.71,NW,307,0.0,0.0,68,0.00,CLR,FEW,0.00,0.0,WeatherDisplay:10.37,2013-11-08 09:02:00,
2013-11-08 04:07:00,34.8,26.0,29.71,NW,307,0.0,0.0,70,0.00,CLR,FEW,0.00,0.0,WeatherDisplay:10.37,2013-11-08 09:07:00,
2013-11-08 04:12:00,34.4,24.9,29.72,NW,307,0.0,2.3,68,0.00,CLR,FEW,0.00,0.0,WeatherDisplay:10.37,2013-11-08 09:12:00,
2013-11-08 04:17:00,34.4,25.3,29.72,NW,307,0.0,0.0,69,0.00,CLR,FEW,0.00,0.0,WeatherDisplay:10.37,2013-11-08 09:17:00,
2013-11-08 04:22:00,34.3,25.5,29.72,NW,307,0.0,1.0,70,0.00,CLR,FEW,0.00,0.0,WeatherDisplay:10.37,2013-11-08 09:22:00,
2013-11-08 04:27:00,34.1,26.7,29.72,NW,307,0.0,1.2,74,0.00,CLR,FEW,0.00,0.0,WeatherDisplay:10.37,2013-11-08 09:27:00,
2013-11-08 04:32:00,33.9,26.8,29.72,NW,307,0.0,0.0,75,0.00,CLR,FEW,0.00,0.0,WeatherDisplay:10.37,2013-11-08 09:32:00,
2013-11-08 04:37:00,33.8,26.7,29.72,NW,307,0.0,0.0,75,0.00,CLR,FEW,0.00,0.0,WeatherDisplay:10.37,2013-11-08 09:37:00,
2013-11-08 04:42:00,33.6,26.8,29.72,NW,307,0.0,0.0,76,0.00,CLR,FEW,0.00,0.0,WeatherDisplay:10.37,2013-11-08 09:42:00,
2013-11-08 04:47:00,33.4,26.6,29.72,NW,307,0.0,0.0,76,0.00,CLR,FEW,0.00,0.0,WeatherDisplay:10.37,2013-11-08 09:47:00,
2013-11-08 04:52:00,33.1,26.4,29.72,NW,307,0.0,0.0,76,0.00,CLR,FEW,0.00,0.0,WeatherDisplay:10.37,2013-11-08 09:52:00,
2013-11-08 04:57:00,32.8,26.1,29.73,NW,307,0.0,0.0,76,0.00,CLR,FEW,0.00,0.0,WeatherDisplay:10.37,2013-11-08 09:57:00,
2013-11-08 05:02:00,32.5,25.8,29.73,NW,307,0.0,0.0,76,0.00,CLR,FEW,0.00,0.0,WeatherDisplay:10.37,2013-11-08 10:02:00,
2013-11-08 05:07:00,32.1,25.7,29.73,NW,307,0.0,0.0,77,0.00,CLR,FEW,0.00,0.0,WeatherDisplay:10.37,2013-11-08 10:07:00,
2013-11-08 05:12:00,32.0,25.6,29.73,NW,307,0.0,0.0,77,0.00,CLR,FEW,0.00,0.0,WeatherDisplay:10.37,2013-11-08 10:12:00,
2013-11-08 05:17:00,31.6,25.5,29.73,NW,307,0.5,1.2,78,0.00,CLR,FEW,0.00,0.0,WeatherDisplay:10.37,2013-11-08 10:17:00,
2013-11-08 05:22:00,31.4,25.6,29.73,NW,307,0.0,0.0,79,0.00,CLR,FEW,0.00,0.0,WeatherDisplay:10.37,2013-11-08 10:22:00,
2013-11-08 05:27:00,31.2,25.7,29.72,NW,307,0.1,1.2,80,0.00,CLR,FEW,0.00,0.0,WeatherDisplay:10.37,2013-11-08 10:27:00,
2013-11-08 05:32:00,31.0,25.6,29.72,NW,307,0.0,0.0,80,0.00,CLR,FEW,0.00,0.0,WeatherDisplay:10.37,2013-11-08 10:32:00,
2013-11-08 05:37:00,30.9,25.5,29.72,NW,307,0.0,0.0,80,0.00,CLR,FEW,0.00,0.0,WeatherDisplay:10.37,2013-11-08 10:37:00,
2013-11-08 05:42:00,30.8,25.7,29.73,NW,307,0.0,1.2,81,0.00,CLR,FEW,0.00,0.0,WeatherDisplay:10.37,2013-11-08 10:42:00,
2013-11-08 05:47:00,30.6,25.8,29.73,NW,307,0.0,0.0,82,0.00,CLR,FEW,0.00,0.0,WeatherDisplay:10.37,2013-11-08 10:47:00,
2013-11-08 05:52:00,30.5,26.0,29.73,NW,307,2.6,4.0,83,0.00,CLR,FEW,0.00,0.0,WeatherDisplay:10.37,2013-11-08 10:52:00,
2013-11-08 05:57:00,30.4,25.9,29.73,NW,307,4.5,5.8,83,0.00,CLR,FEW,0.00,0.0,WeatherDisplay:10.37,2013-11-08 10:57:00,
2013-11-08 06:02:00,30.5,26.0,29.73,NW,307,0.8,2.3,83,0.00,CLR,FEW,0.00,0.0,WeatherDisplay:10.37,2013-11-08 11:02:00,
2013-11-08 06:07:00,30.5,26.0,29.73,NW,307,0.0,1.2,83,0.00,CLR,FEW,0.00,0.0,WeatherDisplay:10.37,2013-11-08 11:07:00,
2013-11-08 06:12:00,30.5,26.0,29.73,NW,307,0.0,0.0,83,0.00,CLR,FEW,0.00,0.0,WeatherDisplay:10.37,2013-11-08 11:12:00,
2013-11-08 06:17:00,30.4,25.9,29.73,NW,307,0.1,2.3,83,0.00,CLR,FEW,0.00,0.0,WeatherDisplay:10.37,2013-11-08 11:17:00,
2013-11-08 06:22:00,30.3,25.8,29.73,NW,307,0.0,0.0,83,0.00,CLR,FEW,0.00,0.0,WeatherDisplay:10.37,2013-11-08 11:22:00,
2013-11-08 06:27:00,30.2,25.7,29.73,NW,307,0.0,0.0,83,0.00,CLR,FEW,0.00,0.0,WeatherDisplay:10.37,2013-11-08 11:27:00,
2013-11-08 06:32:00,30.1,25.6,29.73,NW,307,0.0,0.0,83,0.00,CLR,FEW,0.00,0.0,WeatherDisplay:10.37,2013-11-08 11:32:00,
2013-11-08 06:37:00,30.1,25.6,29.73,NW,307,0.0,0.0,83,0.00,CLR,FEW,0.00,0.0,WeatherDisplay:10.37,2013-11-08 11:37:00,
2013-11-08 06:42:00,29.9,25.7,29.74,NW,307,0.0,0.0,84,0.00,CLR,FEW,0.00,0.0,WeatherDisplay:10.37,2013-11-08 11:42:00,
2013-11-08 06:47:00,29.8,25.6,29.74,NW,307,0.0,0.0,84,0.00,CLR,FEW,0.00,0.0,WeatherDisplay:10.37,2013-11-08 11:47:00,
2013-11-08 06:52:00,29.8,25.8,29.74,NW,307,0.0,0.0,85,0.00,CLR,FEW,0.00,0.0,WeatherDisplay:10.37,2013-11-08 11:52:00,
2013-11-08 06:57:00,29.7,25.7,29.75,NW,307,0.0,0.0,85,0.00,CLR,FEW,0.00,0.0,WeatherDisplay:10.37,2013-11-08 11:57:00,
2013-11-08 07:02:00,29.7,25.7,29.75,NW,307,0.0,0.0,85,0.00,CLR,FEW,0.00,0.0,WeatherDisplay:10.37,2013-11-08 12:02:00,
2013-11-08 07:07:00,29.8,26.1,29.75,NW,307,0.0,0.0,86,0.00,CLR,FEW,0.00,0.0,WeatherDisplay:10.37,2013-11-08 12:07:00,
2013-11-08 07:12:00,29.8,26.1,29.75,NW,307,0.0,0.0,86,0.00,CLR,FEW,0.00,0.0,WeatherDisplay:10.37,2013-11-08 12:12:00,
2013-11-08 07:18:00,29.9,26.2,29.75,NW,307,0.0,0.0,86,0.00,CLR,FEW,0.00,0.0,WeatherDisplay:10.37,2013-11-08 12:18:00,
2013-11-08 07:23:00,30.0,26.6,29.75,NW,307,0.0,0.0,87,0.00,CLR,FEW,0.00,0.0,WeatherDisplay:10.37,2013-11-08 12:23:00,
2013-11-08 07:28:00,30.2,26.8,29.75,NW,307,1.2,2.3,87,0.00,CLR,FEW,0.00,0.0,WeatherDisplay:10.37,2013-11-08 12:28:00,
2013-11-08 07:33:00,30.6,27.5,29.75,NW,307,1.5,2.3,88,0.00,CLR,FEW,0.00,0.0,WeatherDisplay:10.37,2013-11-08 12:33:00,
2013-11-08 07:38:00,31.0,27.9,29.75,NW,307,0.9,2.3,88,0.00,CLR,FEW,0.00,0.0,WeatherDisplay:10.37,2013-11-08 12:38:00,
2013-11-08 07:43:00,31.2,28.1,29.76,NW,307,0.0,0.0,88,0.00,CLR,FEW,0.00,0.0,WeatherDisplay:10.37,2013-11-08 12:43:00,
2013-11-08 07:48:00,31.3,28.2,29.76,NW,307,0.0,0.0,88,0.00,CLR,FEW,0.00,0.0,WeatherDisplay:10.37,2013-11-08 12:48:00,
2013-11-08 07:53:00,31.5,28.4,29.76,NW,307,0.9,1.2,88,0.00,CLR,FEW,0.00,0.0,WeatherDisplay:10.37,2013-11-08 12:53:00,
2013-11-08 07:58:00,31.7,28.3,29.76,NW,307,0.0,0.0,87,0.00,CLR,FEW,0.00,0.0,WeatherDisplay:10.37,2013-11-08 12:58:00,
2013-11-08 08:03:00,31.9,28.5,29.76,NW,307,0.4,1.2,87,0.00,OVC,FEW,0.00,0.0,WeatherDisplay:10.37,2013-11-08 13:03:00,
2013-11-08 08:08:00,32.2,28.8,29.76,NW,307,0.7,1.2,87,0.00,OVC,FEW,0.00,0.0,WeatherDisplay:10.37,2013-11-08 13:08:00,
2013-11-08 08:13:00,33.2,29.2,29.76,NW,307,2.2,3.5,85,0.00,OVC,FEW,0.00,0.0,WeatherDisplay:10.37,2013-11-08 13:13:00,
2013-11-08 08:18:00,33.7,29.1,29.76,NW,307,2.6,3.5,83,0.00,OVC,FEW,0.00,0.0,WeatherDisplay:10.37,2013-11-08 13:18:00,
2013-11-08 08:23:00,33.9,29.0,29.76,NW,307,2.3,4.0,82,0.00,OVC,FEW,0.00,0.0,WeatherDisplay:10.37,2013-11-08 13:23:00,
2013-11-08 08:28:00,34.2,28.7,29.76,NW,307,2.2,3.5,80,0.00,OVC,FEW,0.00,0.0,WeatherDisplay:10.37,2013-11-08 13:28:00,
2013-11-08 08:33:00,34.4,28.9,29.76,NW,307,2.2,3.5,80,0.00,OVC,FEW,0.00,0.0,WeatherDisplay:10.37,2013-11-08 13:33:00,
2013-11-08 08:38:00,34.9,29.7,29.76,NW,307,2.7,3.5,81,0.00,OVC,FEW,0.00,0.0,WeatherDisplay:10.37,2013-11-08 13:38:00,
2013-11-08 08:43:00,35.2,29.3,29.76,NW,307,0.5,1.2,79,0.00,OVC,FEW,0.00,0.0,WeatherDisplay:10.37,2013-11-08 13:43:00,
2013-11-08 08:48:00,36.2,30.0,29.76,NW,307,1.2,2.3,78,0.00,OVC,FEW,0.00,0.0,WeatherDisplay:10.37,2013-11-08 13:48:00,
2013-11-08 08:53:00,37.7,30.5,29.76,NW,308,3.3,4.6,75,0.00,OVC,FEW,0.00,0.0,WeatherDisplay:10.37,2013-11-08 13:53:00,
2013-11-08 08:58:00,38.3,29.0,29.76,NW,307,0.9,2.3,69,0.00,OVC,FEW,0.00,0.0,WeatherDisplay:10.37,2013-11-08 13:58:00,
2013-11-08 09:03:00,38.9,28.9,29.76,NW,307,0.0,0.0,67,0.00,OVC,FEW,0.00,0.0,WeatherDisplay:10.37,2013-11-08 14:03:00,
2013-11-08 09:08:00,40.0,28.0,29.76,NW,307,0.0,0.0,62,0.00,OVC,FEW,0.00,0.0,WeatherDisplay:10.37,2013-11-08 14:08:00,
2013-11-08 09:13:00,40.1,27.7,29.75,NW,307,0.2,2.0,61,0.00,OVC,FEW,0.00,0.0,WeatherDisplay:10.37,2013-11-08 14:13:00,
2013-11-08 09:18:00,39.9,26.3,29.75,NW,307,1.8,2.3,58,0.00,OVC,FEW,0.00,0.0,WeatherDisplay:10.37,2013-11-08 14:18:00,
2013-11-08 09:23:00,40.3,26.3,29.75,NW,308,2.4,3.5,57,0.00,OVC,FEW,0.00,0.0,WeatherDisplay:10.37,2013-11-08 14:23:00,
2013-11-08 09:28:00,40.4,26.8,29.76,NW,308,0.2,1.2,58,0.00,OVC,FEW,0.00,0.0,WeatherDisplay:10.37,2013-11-08 14:28:00,
2013-11-08 09:34:00,41.1,27.9,29.76,NW,308,1.2,2.0,59,0.00,OVC,FEW,0.00,0.0,WeatherDisplay:10.37,2013-11-08 14:34:00,
2013-11-08 09:39:00,41.0,26.5,29.76,NW,308,1.7,3.5,56,0.00,OVC,FEW,0.00,0.0,WeatherDisplay:10.37,2013-11-08 14:39:00,
2013-11-08 09:44:00,41.2,26.7,29.76,NW,308,1.6,3.5,56,0.00,OVC,FEW,0.00,0.0,WeatherDisplay:10.37,2013-11-08 14:44:00,
2013-11-08 09:49:00,41.5,26.5,29.76,NW,308,1.3,3.5,55,0.00,OVC,FEW,0.00,0.0,WeatherDisplay:10.37,2013-11-08 14:49:00,
2013-11-08 09:54:00,41.8,27.2,29.75,NW,308,0.8,2.3,56,0.00,OVC,FEW,0.00,0.0,WeatherDisplay:10.37,2013-11-08 14:54:00,
2013-11-08 09:59:00,42.0,26.5,29.75,NW,308,2.4,3.5,54,0.00,OVC,FEW,0.00,0.0,WeatherDisplay:10.37,2013-11-08 14:59:00,
2013-11-08 10:04:00,41.9,26.4,29.75,NW,307,1.6,5.8,54,0.00,OVC,FEW,0.00,0.0,WeatherDisplay:10.37,2013-11-08 15:04:00,
2013-11-08 10:09:00,42.3,27.7,29.75,NW,307,1.1,2.3,56,0.00,OVC,FEW,0.00,0.0,WeatherDisplay:10.37,2013-11-08 15:09:00,
2013-11-08 10:14:00,42.1,27.1,29.75,NW,307,0.0,1.2,55,0.00,OVC,FEW,0.00,0.0,WeatherDisplay:10.37,2013-11-08 15:14:00,
2013-11-08 10:19:00,42.1,27.1,29.75,NW,308,0.1,3.5,55,0.00,OVC,FEW,0.00,0.0,WeatherDisplay:10.37,2013-11-08 15:19:00,
2013-11-08 10:24:00,42.8,28.2,29.75,NW,308,2.7,9.2,56,0.00,OVC,FEW,0.00,0.0,WeatherDisplay:10.37,2013-11-08 15:24:00,
2013-11-08 10:29:00,43.1,27.1,29.75,NW,308,3.8,5.8,53,0.00,OVC,FEW,0.00,0.0,WeatherDisplay:10.37,2013-11-08 15:29:00,
2013-11-08 10:34:00,43.1,27.1,29.75,WNW,303,3.6,4.6,53,0.00,OVC,FEW,0.00,0.0,WeatherDisplay:10.37,2013-11-08 15:34:00,
2013-11-08 10:39:00,43.1,27.6,29.74,WNW,298,1.4,4.6,54,0.00,OVC,FEW,0.00,0.0,WeatherDisplay:10.37,2013-11-08 15:39:00,
2013-11-08 10:44:00,43.1,27.1,29.74,WNW,296,4.8,16.1,53,0.00,OVC,FEW,0.00,0.0,WeatherDisplay:10.37,2013-11-08 15:44:00,
2013-11-08 10:49:00,43.3,28.6,29.74,WNW,302,1.5,5.8,56,0.00,OVC,FEW,0.00,0.0,WeatherDisplay:10.37,2013-11-08 15:49:00,
2013-11-08 10:54:00,43.6,27.6,29.74,NW,308,0.8,3.5,53,0.00,OVC,FEW,0.00,0.0,WeatherDisplay:10.37,2013-11-08 15:54:00,
2013-11-08 10:59:00,44.1,28.0,29.74,NW,306,1.9,11.5,53,0.00,OVC,FEW,0.00,0.0,WeatherDisplay:10.37,2013-11-08 15:59:00,
2013-11-08 11:04:00,43.6,28.0,29.74,NW,307,2.8,9.2,54,0.00,OVC,FEW,0.00,0.0,WeatherDisplay:10.37,2013-11-08 16:04:00,
2013-11-08 11:09:00,43.2,28.5,29.74,NW,307,0.6,3.5,56,0.00,OVC,FEW,0.00,0.0,WeatherDisplay:10.37,2013-11-08 16:09:00,
2013-11-08 11:15:00,43.0,27.9,29.74,NW,307,2.5,2.5,55,0.00,OVC,FEW,0.00,0.0,WeatherDisplay:10.37,2013-11-08 16:15:00,
2013-11-08 11:20:00,42.8,27.3,29.74,NW,307,4.8,8.1,54,0.00,OVC,FEW,0.00,0.0,WeatherDisplay:10.37,2013-11-08 16:20:00,
2013-11-08 11:25:00,42.8,27.3,29.74,NW,306,3.0,9.0,54,0.00,OVC,FEW,0.00,0.0,WeatherDisplay:10.37,2013-11-08 16:25:00,
2013-11-08 11:30:00,43.4,27.8,29.74,NW,306,2.8,5.8,54,0.00,OVC,FEW,0.00,0.0,WeatherDisplay:10.37,2013-11-08 16:30:00,
2013-11-08 11:35:00,43.2,27.2,29.74,NW,307,2.5,4.6,53,0.00,OVC,FEW,0.00,0.0,WeatherDisplay:10.37,2013-11-08 16:35:00,
2013-11-08 11:40:00,43.4,27.8,29.73,NW,307,1.0,15.0,54,0.00,OVC,FEW,0.00,0.0,WeatherDisplay:10.37,2013-11-08 16:40:00,
2013-11-08 11:45:00,44.0,28.0,29.73,NW,307,5.0,10.0,53,0.00,OVC,FEW,0.00,0.0,WeatherDisplay:10.37,2013-11-08 16:45:00,
2013-11-08 11:50:00,44.3,28.7,29.73,NW,307,2.5,8.1,54,0.00,OVC,FEW,0.00,0.0,WeatherDisplay:10.37,2013-11-08 16:50:00,
2013-11-08 11:55:00,44.4,29.2,29.74,NW,307,3.0,9.0,55,0.00,OVC,FEW,0.00,0.0,WeatherDisplay:10.37,2013-11-08 16:55:00,
2013-11-08 12:00:00,44.5,28.9,29.74,WNW,296,2.8,4.6,54,0.00,OVC,FEW,0.00,0.0,WeatherDisplay:10.37,2013-11-08 17:00:00,
2013-11-08 12:05:00,44.1,28.0,29.74,WNW,300,5.0,12.0,53,0.00,OVC,FEW,0.00,0.0,WeatherDisplay:10.37,2013-11-08 17:05:00,
2013-11-08 12:10:00,44.2,28.6,29.73,WNW,303,2.0,10.0,54,0.00,OVC,FEW,0.00,0.0,WeatherDisplay:10.37,2013-11-08 17:10:00,
2013-11-08 12:15:00,44.3,27.8,29.73,WNW,302,2.0,16.0,52,0.00,OVC,FEW,0.00,0.0,WeatherDisplay:10.37,2013-11-08 17:15:00,
2013-11-08 12:20:00,44.0,27.5,29.73,WNW,294,3.4,10.4,52,0.00,OVC,FEW,0.00,0.0,WeatherDisplay:10.37,2013-11-08 17:20:00,
2013-11-08 12:25:00,43.3,27.3,29.74,WNW,302,2.0,8.0,53,0.00,OVC,FEW,0.00,0.0,WeatherDisplay:10.37,2013-11-08 17:25:00,
2013-11-08 12:30:00,43.2,27.7,29.74,NW,307,2.9,6.9,54,0.00,OVC,FEW,0.00,0.0,WeatherDisplay:10.37,2013-11-08 17:30:00,
2013-11-08 12:35:00,42.9,27.0,29.74,NW,305,1.0,13.0,53,0.00,OVC,FEW,0.00,0.0,WeatherDisplay:10.37,2013-11-08 17:35:00,
2013-11-08 12:40:00,42.7,27.2,29.74,NW,306,5.0,12.0,54,0.00,OVC,FEW,0.00,0.0,WeatherDisplay:10.37,2013-11-08 17:40:00,
2013-11-08 12:45:00,42.5,27.0,29.74,NW,304,1.0,9.0,54,0.00,OVC,FEW,0.00,0.0,WeatherDisplay:10.37,2013-11-08 17:45:00,
2013-11-08 12:50:00,42.4,26.9,29.74,NW,307,3.3,5.8,54,0.00,OVC,FEW,0.00,0.0,WeatherDisplay:10.37,2013-11-08 17:50:00,
2013-11-08 12:55:00,42.5,26.5,29.74,NW,306,2.0,6.0,53,0.00,OVC,FEW,0.00,0.0,WeatherDisplay:10.37,2013-11-08 17:55:00,
2013-11-08 13:00:00,42.6,27.1,29.74,NW,307,3.5,5.8,54,0.00,OVC,FEW,0.00,0.0,WeatherDisplay:10.37,2013-11-08 18:00:00,
2013-11-08 13:05:00,42.5,27.0,29.74,NW,306,2.0,12.0,54,0.00,OVC,FEW,0.00,0.0,WeatherDisplay:10.37,2013-11-08 18:05:00,
2013-11-08 13:10:00,42.3,26.8,29.74,NW,307,3.0,5.0,54,0.00,OVC,FEW,0.00,0.0,WeatherDisplay:10.37,2013-11-08 18:10:00,
2013-11-08 13:15:00,42.4,27.4,29.74,NW,304,0.6,3.5,55,0.00,OVC,FEW,0.00,0.0,WeatherDisplay:10.37,2013-11-08 18:15:00,
2013-11-08 13:20:00,42.6,26.6,29.74,NW,307,3.5,5.8,53,0.00,OVC,FEW,0.00,0.0,WeatherDisplay:10.37,2013-11-08 18:20:00,
2013-11-08 13:25:00,42.7,27.2,29.74,NW,306,3.0,7.0,54,0.00,OVC,FEW,0.00,0.0,WeatherDisplay:10.37,2013-11-08 18:25:00,
2013-11-08 13:30:00,42.6,27.1,29.74,NW,307,0.3,2.0,54,0.00,OVC,FEW,0.00,0.0,WeatherDisplay:10.37,2013-11-08 18:30:00,
2013-11-08 13:35:00,42.6,27.1,29.74,NW,307,5.0,12.0,54,0.00,OVC,FEW,0.00,0.0,WeatherDisplay:10.37,2013-11-08 18:35:00,
2013-11-08 13:40:00,42.6,27.5,29.74,NW,307,4.4,9.2,55,0.00,OVC,FEW,0.00,0.0,WeatherDisplay:10.37,2013-11-08 18:40:00,
2013-11-08 13:45:00,42.6,27.5,29.74,NW,307,2.9,3.5,55,0.00,OVC,FEW,0.00,0.0,WeatherDisplay:10.37,2013-11-08 18:45:00,
2013-11-08 13:50:00,42.5,27.5,29.74,NW,307,1.5,3.5,55,0.00,OVC,FEW,0.00,0.0,WeatherDisplay:10.37,2013-11-08 18:50:00,
2013-11-08 13:55:00,42.4,27.3,29.74,WNW,301,1.0,12.0,55,0.00,OVC,FEW,0.00,0.0,WeatherDisplay:10.37,2013-11-08 18:55:00,
2013-11-08 14:00:00,42.2,27.2,29.74,NW,305,5.6,12.0,55,0.00,OVC,FEW,0.00,0.0,WeatherDisplay:10.37,2013-11-08 19:00:00,
2013-11-08 14:05:00,42.1,27.1,29.74,NW,305,2.0,12.0,55,0.00,OVC,FEW,0.00,0.0,WeatherDisplay:10.37,2013-11-08 19:05:00,
2013-11-08 14:10:00,41.9,27.8,29.74,NW,307,0.7,3.0,57,0.00,OVC,FEW,0.00,0.0,WeatherDisplay:10.37,2013-11-08 19:10:00,
2013-11-08 14:15:00,41.9,28.2,29.74,WNW,298,2.1,3.5,58,0.00,OVC,FEW,0.00,0.0,WeatherDisplay:10.37,2013-11-08 19:15:00,
2013-11-08 14:20:00,41.9,28.2,29.74,NW,307,2.0,3.5,58,0.00,OVC,FEW,0.00,0.0,WeatherDisplay:10.37,2013-11-08 19:20:00,
2013-11-08 14:25:00,42.0,28.3,29.75,NW,307,1.0,12.0,58,0.00,OVC,FEW,0.00,0.0,WeatherDisplay:10.37,2013-11-08 19:25:00,
2013-11-08 14:30:00,41.9,29.0,29.75,NW,306,2.0,6.0,60,0.00,OVC,FEW,0.00,0.0,WeatherDisplay:10.37,2013-11-08 19:30:00,
2013-11-08 14:35:00,41.8,28.9,29.75,NW,304,3.0,10.0,60,0.00,OVC,FEW,0.00,0.0,WeatherDisplay:10.37,2013-11-08 19:35:00,
2013-11-08 14:40:00,41.8,28.5,29.75,NW,307,3.7,5.8,59,0.00,OVC,FEW,0.00,0.0,WeatherDisplay:10.37,2013-11-08 19:40:00,
2013-11-08 14:45:00,42.0,28.7,29.75,NW,307,4.1,14.0,59,0.00,OVC,FEW,0.00,0.0,WeatherDisplay:10.37,2013-11-08 19:45:00,
2013-11-08 14:50:00,42.1,28.4,29.75,NW,307,3.4,6.0,58,0.00,OVC,FEW,0.00,0.0,WeatherDisplay:10.37,2013-11-08 19:50:00,
2013-11-08 14:55:00,41.9,28.6,29.76,NW,307,9.0,15.0,59,0.00,OVC,FEW,0.00,0.0,WeatherDisplay:10.37,2013-11-08 19:55:00,
2013-11-08 15:00:00,41.5,29.0,29.76,NW,307,3.2,3.5,61,0.00,OVC,FEW,0.00,0.0,WeatherDisplay:10.37,2013-11-08 20:00:00,
2013-11-08 15:05:00,41.1,29.1,29.76,NW,307,8.0,13.0,62,0.00,CLR,FEW,0.00,0.0,WeatherDisplay:10.37,2013-11-08 20:05:00,
2013-11-08 15:10:00,40.8,29.6,29.76,NW,307,3.0,7.0,64,0.00,CLR,FEW,0.00,0.0,WeatherDisplay:10.37,2013-11-08 20:10:00,
2013-11-08 15:15:00,40.5,29.3,29.76,NW,307,2.4,5.8,64,0.00,CLR,FEW,0.00,0.0,WeatherDisplay:10.37,2013-11-08 20:15:00,
2013-11-08 15:20:00,40.4,29.2,29.76,NW,307,2.0,7.0,64,0.00,CLR,FEW,0.00,0.0,WeatherDisplay:10.37,2013-11-08 20:20:00,
2013-11-08 15:25:00,40.2,28.2,29.77,NW,304,5.0,12.0,62,0.00,CLR,FEW,0.00,0.0,WeatherDisplay:10.37,2013-11-08 20:25:00,
2013-11-08 15:30:00,40.2,28.6,29.77,NW,306,3.0,7.0,63,0.00,CLR,FEW,0.00,0.0,WeatherDisplay:10.37,2013-11-08 20:30:00,
2013-11-08 15:35:00,40.1,28.5,29.77,NW,307,3.2,9.2,63,0.00,CLR,FEW,0.00,0.0,WeatherDisplay:10.37,2013-11-08 20:35:00,
2013-11-08 15:40:00,40.0,28.0,29.78,NW,306,3.4,5.8,62,0.00,CLR,FEW,0.00,0.0,WeatherDisplay:10.37,2013-11-08 20:40:00,
2013-11-08 15:45:00,39.7,27.7,29.78,NW,307,4.5,8.1,62,0.00,CLR,FEW,0.00,0.0,WeatherDisplay:10.37,2013-11-08 20:45:00,
2013-11-08 15:50:00,39.7,27.7,29.78,NW,307,3.0,6.9,62,0.00,CLR,FEW,0.00,0.0,WeatherDisplay:10.37,2013-11-08 20:50:00,
2013-11-08 15:55:00,39.6,27.6,29.79,NW,307,1.3,3.5,62,0.00,CLR,FEW,0.00,0.0,WeatherDisplay:10.37,2013-11-08 20:55:00,
2013-11-08 16:00:00,39.5,27.1,29.79,NW,307,0.0,4.0,61,0.00,CLR,FEW,0.00,0.0,WeatherDisplay:10.37,2013-11-08 21:00:00,
2013-11-08 16:05:00,39.3,27.4,29.79,NW,307,0.2,1.2,62,0.00,CLR,FEW,0.00,0.0,WeatherDisplay:10.37,2013-11-08 21:05:00,
2013-11-08 16:10:00,38.9,26.6,29.79,NW,307,0.8,2.3,61,0.00,CLR,FEW,0.00,0.0,WeatherDisplay:10.37,2013-11-08 21:10:00,
2013-11-08 16:15:00,38.8,27.3,29.79,NW,307,0.0,0.0,63,0.00,CLR,FEW,0.00,0.0,WeatherDisplay:10.37,2013-11-08 21:15:00,
2013-11-08 16:20:00,38.7,26.4,29.79,NW,307,0.0,0.0,61,0.00,CLR,FEW,0.00,0.0,WeatherDisplay:10.37,2013-11-08 21:20:00,
2013-11-08 16:25:00,38.6,26.7,29.80,NW,307,0.1,1.2,62,0.00,CLR,FEW,0.00,0.0,WeatherDisplay:10.37,2013-11-08 21:25:00,
2013-11-08 16:30:00,38.2,27.1,29.80,NW,307,1.1,3.5,64,0.00,CLR,FEW,0.00,0.0,WeatherDisplay:10.37,2013-11-08 21:30:00,
2013-11-08 16:35:00,38.3,27.2,29.80,NW,307,0.8,2.3,64,0.00,CLR,FEW,0.00,0.0,WeatherDisplay:10.37,2013-11-08 21:35:00,
2013-11-08 16:40:00,38.3,26.8,29.81,NW,307,2.4,3.5,63,0.00,CLR,FEW,0.00,0.0,WeatherDisplay:10.37,2013-11-08 21:40:00,
2013-11-08 16:45:00,38.5,26.6,29.81,NW,307,4.4,10.4,62,0.00,CLR,FEW,0.00,0.0,WeatherDisplay:10.37,2013-11-08 21:45:00,
2013-11-08 16:50:00,38.7,27.2,29.81,NW,307,0.8,3.5,63,0.00,CLR,FEW,0.00,0.0,WeatherDisplay:10.37,2013-11-08 21:50:00,
2013-11-08 16:55:00,38.6,27.1,29.81,NW,307,2.5,3.5,63,0.00,CLR,FEW,0.00,0.0,WeatherDisplay:10.37,2013-11-08 21:55:00,
2013-11-08 17:00:00,38.6,27.1,29.81,NW,307,1.1,3.5,63,0.00,CLR,FEW,0.00,0.0,WeatherDisplay:10.37,2013-11-08 22:00:00,
2013-11-08 17:05:00,38.4,26.9,29.81,NW,307,2.7,5.8,63,0.00,CLR,FEW,0.00,0.0,WeatherDisplay:10.37,2013-11-08 22:05:00,
2013-11-08 17:10:00,38.4,26.9,29.82,NW,307,2.1,4.6,63,0.00,CLR,FEW,0.00,0.0,WeatherDisplay:10.37,2013-11-08 22:10:00,
2013-11-08 17:15:00,38.3,26.4,29.82,NW,307,1.5,3.5,62,0.00,CLR,FEW,0.00,0.0,WeatherDisplay:10.37,2013-11-08 22:15:00,
2013-11-08 17:20:00,38.3,26.8,29.82,NW,307,0.5,3.0,63,0.00,CLR,FEW,0.00,0.0,WeatherDisplay:10.37,2013-11-08 22:20:00,
2013-11-08 17:25:00,38.3,26.8,29.83,NW,307,1.7,3.5,63,0.00,CLR,FEW,0.00,0.0,WeatherDisplay:10.37,2013-11-08 22:25:00,
2013-11-08 17:30:00,38.4,26.5,29.83,NW,307,2.0,4.6,62,0.00,CLR,FEW,0.00,0.0,WeatherDisplay:10.37,2013-11-08 22:30:00,
2013-11-08 17:35:00,38.4,26.9,29.83,NW,307,3.3,6.9,63,0.00,CLR,FEW,0.00,0.0,WeatherDisplay:10.37,2013-11-08 22:35:00,
2013-11-08 17:40:00,38.5,27.4,29.83,NW,307,1.9,4.0,64,0.00,CLR,FEW,0.00,0.0,WeatherDisplay:10.37,2013-11-08 22:40:00,
2013-11-08 17:45:00,38.6,26.3,29.83,NW,307,5.6,12.0,61,0.00,CLR,FEW,0.00,0.0,WeatherDisplay:10.37,2013-11-08 22:45:00,
2013-11-08 17:50:00,38.7,26.4,29.83,NW,307,3.3,6.0,61,0.00,CLR,FEW,0.00,0.0,WeatherDisplay:10.37,2013-11-08 22:50:00,
2013-11-08 17:55:00,38.8,26.1,29.84,NW,307,3.0,4.6,60,0.00,CLR,FEW,0.00,0.0,WeatherDisplay:10.37,2013-11-08 22:55:00,
2013-11-08 18:00:00,38.8,26.1,29.84,NW,307,1.4,3.5,60,0.00,CLR,FEW,0.00,0.0,WeatherDisplay:10.37,2013-11-08 23:00:00,
2013-11-08 18:05:00,38.9,25.8,29.84,NW,307,5.1,15.0,59,0.00,CLR,FEW,0.00,0.0,WeatherDisplay:10.37,2013-11-08 23:05:00,
2013-11-08 18:10:00,38.9,26.2,29.84,NW,306,1.7,4.6,60,0.00,CLR,FEW,0.00,0.0,WeatherDisplay:10.37,2013-11-08 23:10:00,
2013-11-08 18:15:00,38.9,26.6,29.84,NW,307,0.9,3.5,61,0.00,CLR,FEW,0.00,0.0,WeatherDisplay:10.37,2013-11-08 23:15:00,
2013-11-08 18:20:00,38.8,26.1,29.84,NW,307,2.2,4.6,60,0.00,CLR,FEW,0.00,0.0,WeatherDisplay:10.37,2013-11-08 23:20:00,
2013-11-08 18:25:00,38.7,26.4,29.85,NW,307,2.7,8.1,61,0.00,CLR,FEW,0.00,0.0,WeatherDisplay:10.37,2013-11-08 23:25:00,
2013-11-08 18:30:00,38.7,26.8,29.85,NW,307,3.1,6.0,62,0.00,CLR,FEW,0.00,0.0,WeatherDisplay:10.37,2013-11-08 23:30:00,
2013-11-08 18:35:00,38.6,26.7,29.85,NW,307,5.4,6.9,62,0.00,CLR,FEW,0.00,0.0,WeatherDisplay:10.37,2013-11-08 23:35:00,
2013-11-08 18:40:00,38.5,27.0,29.85,NW,307,1.8,3.5,63,0.00,CLR,FEW,0.00,0.0,WeatherDisplay:10.37,2013-11-08 23:40:00,
2013-11-08 18:45:00,38.4,26.5,29.85,NW,307,4.5,6.9,62,0.00,CLR,FEW,0.00,0.0,WeatherDisplay:10.37,2013-11-08 23:45:00,
2013-11-08 18:50:00,38.5,27.0,29.85,NW,307,4.9,5.8,63,0.00,CLR,FEW,0.00,0.0,WeatherDisplay:10.37,2013-11-08 23:50:00,
2013-11-08 18:55:00,38.4,26.5,29.85,NW,307,7.0,13.8,62,0.00,CLR,FEW,0.00,0.0,WeatherDisplay:10.37,2013-11-08 23:55:00,
2013-11-08 19:00:00,38.4,26.1,29.85,NW,307,4.6,9.2,61,0.00,CLR,FEW,0.00,0.0,WeatherDisplay:10.37,2013-11-09 00:00:00,
2013-11-08 19:05:00,38.4,26.1,29.85,NW,307,3.2,6.9,61,0.00,CLR,FEW,0.00,0.0,WeatherDisplay:10.37,2013-11-09 00:05:00,
2013-11-08 19:10:00,38.3,25.6,29.85,NW,307,3.5,10.0,60,0.00,CLR,FEW,0.00,0.0,WeatherDisplay:10.37,2013-11-09 00:10:00,
2013-11-08 19:15:00,38.4,25.7,29.85,NW,307,3.4,6.9,60,0.00,CLR,FEW,0.00,0.0,WeatherDisplay:10.37,2013-11-09 00:15:00,
2013-11-08 19:20:00,38.5,25.4,29.85,NW,307,6.2,10.4,59,0.00,CLR,FEW,0.00,0.0,WeatherDisplay:10.37,2013-11-09 00:20:00,
2013-11-08 19:25:00,38.6,25.1,29.85,NW,307,0.6,11.5,58,0.00,CLR,FEW,0.00,0.0,WeatherDisplay:10.37,2013-11-09 00:25:00,
2013-11-08 19:30:00,38.5,24.6,29.85,NW,307,3.2,6.9,57,0.00,CLR,FEW,0.00,0.0,WeatherDisplay:10.37,2013-11-09 00:30:00,
2013-11-08 19:35:00,38.4,24.5,29.85,NW,307,2.3,5.8,57,0.00,CLR,FEW,0.00,0.0,WeatherDisplay:10.37,2013-11-09 00:35:00,
2013-11-08 19:40:00,38.3,24.4,29.86,NW,307,2.9,3.5,57,0.00,CLR,FEW,0.00,0.0,WeatherDisplay:10.37,2013-11-09 00:40:00,
2013-11-08 19:45:00,38.3,24.0,29.86,NW,307,2.4,6.9,56,0.00,CLR,FEW,0.00,0.0,WeatherDisplay:10.37,2013-11-09 00:45:00,
2013-11-08 19:50:00,38.4,24.1,29.86,NW,307,0.4,2.3,56,0.00,CLR,FEW,0.00,0.0,WeatherDisplay:10.37,2013-11-09 00:50:00,
2013-11-08 19:55:00,38.4,24.5,29.87,NW,307,0.4,2.3,57,0.00,CLR,FEW,0.00,0.0,WeatherDisplay:10.37,2013-11-09 00:55:00,
2013-11-08 20:00:00,38.4,24.5,29.87,NW,307,0.4,1.2,57,0.00,CLR,FEW,0.00,0.0,WeatherDisplay:10.37,2013-11-09 01:00:00,
2013-11-08 20:05:00,38.5,24.6,29.87,WNW,303,1.7,10.4,57,0.00,CLR,FEW,0.00,0.0,WeatherDisplay:10.37,2013-11-09 01:05:00,
2013-11-08 20:10:00,38.6,24.7,29.87,NW,307,5.8,11.5,57,0.00,CLR,FEW,0.00,0.0,WeatherDisplay:10.37,2013-11-09 01:10:00,
2013-11-08 20:16:00,38.7,24.8,29.87,NW,308,5.8,14.0,57,0.00,CLR,FEW,0.00,0.0,WeatherDisplay:10.37,2013-11-09 01:16:00,
2013-11-08 20:21:00,38.8,24.9,29.87,NW,307,2.7,3.5,57,0.00,CLR,FEW,0.00,0.0,WeatherDisplay:10.37,2013-11-09 01:21:00,
2013-11-08 20:26:00,38.8,25.3,29.87,NW,307,6.3,10.4,58,0.00,CLR,FEW,0.00,0.0,WeatherDisplay:10.37,2013-11-09 01:26:00,
2013-11-08 20:31:00,38.8,25.3,29.87,NW,307,3.6,6.9,58,0.00,CLR,FEW,0.00,0.0,WeatherDisplay:10.37,2013-11-09 01:31:00,
2013-11-08 20:36:00,38.7,25.6,29.87,NW,307,4.4,9.2,59,0.00,CLR,FEW,0.00,0.0,WeatherDisplay:10.37,2013-11-09 01:36:00,
2013-11-08 20:41:00,38.7,25.6,29.88,NW,307,4.5,6.9,59,0.00,CLR,FEW,0.00,0.0,WeatherDisplay:10.37,2013-11-09 01:41:00,
2013-11-08 20:46:00,38.6,25.5,29.88,NW,307,7.2,11.5,59,0.00,CLR,FEW,0.00,0.0,WeatherDisplay:10.37,2013-11-09 01:46:00,
2013-11-08 20:51:00,38.6,25.5,29.88,NW,307,6.2,10.4,59,0.00,CLR,FEW,0.00,0.0,WeatherDisplay:10.37,2013-11-09 01:51:00,
2013-11-08 20:56:00,38.5,25.8,29.88,NW,307,3.5,5.8,60,0.00,CLR,FEW,0.00,0.0,WeatherDisplay:10.37,2013-11-09 01:56:00,
2013-11-08 21:01:00,38.4,26.5,29.88,WNW,299,5.5,12.7,62,0.00,CLR,FEW,0.00,0.0,WeatherDisplay:10.37,2013-11-09 02:01:00,
2013-11-08 21:06:00,38.3,26.4,29.88,NW,307,6.5,11.5,62,0.00,CLR,FEW,0.00,0.0,WeatherDisplay:10.37,2013-11-09 02:06:00,
2013-11-08 21:11:00,38.2,26.7,29.88,NW,307,1.8,4.0,63,0.00,CLR,FEW,0.00,0.0,WeatherDisplay:10.37,2013-11-09 02:11:00,
2013-11-08 21:16:00,38.1,25.8,29.88,NW,307,5.3,9.2,61,0.00,CLR,FEW,0.00,0.0,WeatherDisplay:10.37,2013-11-09 02:16:00,
2013-11-08 21:21:00,38.0,25.7,29.88,NW,307,7.1,9.2,61,0.00,CLR,FEW,0.00,0.0,WeatherDisplay:10.37,2013-11-09 02:21:00,
2013-11-08 21:26:00,38.0,26.1,29.89,NW,307,0.0,1.0,62,0.00,CLR,FEW,0.00,0.0,WeatherDisplay:10.37,2013-11-09 02:26:00,
2013-11-08 21:31:00,37.9,25.6,29.89,NW,307,3.7,9.2,61,0.00,CLR,FEW,0.00,0.0,WeatherDisplay:10.37,2013-11-09 02:31:00,
2013-11-08 21:36:00,37.9,26.0,29.89,NW,307,2.1,3.5,62,0.00,CLR,FEW,0.00,0.0,WeatherDisplay:10.37,2013-11-09 02:36:00,
2013-11-08 21:41:00,37.9,25.6,29.89,NW,307,3.4,5.8,61,0.00,CLR,FEW,0.00,0.0,WeatherDisplay:10.37,2013-11-09 02:41:00,
2013-11-08 21:46:00,37.9,25.6,29.89,NW,307,2.2,3.5,61,0.00,CLR,FEW,0.00,0.0,WeatherDisplay:10.37,2013-11-09 02:46:00,
2013-11-08 21:51:00,37.9,25.6,29.89,NW,307,2.5,5.8,61,0.00,CLR,FEW,0.00,0.0,WeatherDisplay:10.37,2013-11-09 02:51:00,
2013-11-08 21:56:00,38.0,25.3,29.88,NW,307,5.2,11.5,60,0.00,CLR,FEW,0.00,0.0,WeatherDisplay:10.37,2013-11-09 02:56:00,
2013-11-08 22:01:00,38.1,25.0,29.88,NW,307,2.2,6.9,59,0.00,CLR,FEW,0.00,0.0,WeatherDisplay:10.37,2013-11-09 03:01:00,
2013-11-08 22:06:00,38.1,24.6,29.88,NW,307,3.4,5.8,58,0.00,CLR,FEW,0.00,0.0,WeatherDisplay:10.37,2013-11-09 03:06:00,
2013-11-08 22:11:00,38.3,24.0,29.88,NW,307,9.2,13.8,56,0.00,CLR,FEW,0.00,0.0,WeatherDisplay:10.37,2013-11-09 03:11:00,
2013-11-08 22:16:00,38.4,23.6,29.88,NW,307,1.0,5.8,55,0.00,CLR,FEW,0.00,0.0,WeatherDisplay:10.37,2013-11-09 03:16:00,
2013-11-08 22:21:00,38.4,24.1,29.88,NW,306,1.9,6.0,56,0.00,CLR,FEW,0.00,0.0,WeatherDisplay:10.37,2013-11-09 03:21:00,
2013-11-08 22:26:00,38.4,23.6,29.88,NW,307,1.8,6.9,55,0.00,CLR,FEW,0.00,0.0,WeatherDisplay:10.37,2013-11-09 03:26:00,
2013-11-08 22:31:00,38.5,23.7,29.88,NW,307,1.4,6.0,55,0.00,CLR,FEW,0.00,0.0,WeatherDisplay:10.37,2013-11-09 03:31:00,
2013-11-08 22:36:00,38.5,24.1,29.88,NW,307,0.9,1.2,56,0.00,CLR,FEW,0.00,0.0,WeatherDisplay:10.37,2013-11-09 03:36:00,
2013-11-08 22:41:00,38.4,24.1,29.88,NW,307,3.5,9.2,56,0.00,CLR,FEW,0.00,0.0,WeatherDisplay:10.37,2013-11-09 03:41:00,
2013-11-08 22:46:00,38.4,24.1,29.88,NW,307,0.8,2.3,56,0.00,CLR,FEW,0.00,0.0,WeatherDisplay:10.37,2013-11-09 03:46:00,
2013-11-08 22:51:00,38.3,23.5,29.88,NW,307,4.0,10.0,55,0.00,CLR,FEW,0.00,0.0,WeatherDisplay:10.37,2013-11-09 03:51:00,
2013-11-08 22:56:00,38.5,23.7,29.88,NW,307,5.7,9.2,55,0.00,CLR,FEW,0.00,0.0,WeatherDisplay:10.37,2013-11-09 03:56:00,
2013-11-08 23:01:00,38.5,23.3,29.88,NW,307,1.9,5.8,54,0.00,CLR,FEW,0.00,0.0,WeatherDisplay:10.37,2013-11-09 04:01:00,
2013-11-08 23:06:00,38.6,23.4,29.88,NW,307,5.1,6.0,54,0.00,CLR,FEW,0.00,0.0,WeatherDisplay:10.37,2013-11-09 04:06:00,
2013-11-08 23:11:00,38.6,22.9,29.88,NW,307,7.0,10.0,53,0.00,CLR,FEW,0.00,0.0,WeatherDisplay:10.37,2013-11-09 04:11:00,
2013-11-08 23:16:00,38.6,22.5,29.88,NW,307,8.3,12.7,52,0.00,CLR,FEW,0.00,0.0,WeatherDisplay:10.37,2013-11-09 04:16:00,
2013-11-08 23:21:00,38.7,23.0,29.88,NW,307,7.7,11.5,53,0.00,CLR,FEW,0.00,0.0,WeatherDisplay:10.37,2013-11-09 04:21:00,
2013-11-08 23:26:00,38.7,23.0,29.89,WNW,300,3.4,11.5,53,0.00,CLR,FEW,0.00,0.0,WeatherDisplay:10.37,2013-11-09 04:26:00,
2013-11-08 23:31:00,38.6,22.5,29.89,NW,307,4.9,5.8,52,0.00,CLR,FEW,0.00,0.0,WeatherDisplay:10.37,2013-11-09 04:31:00,
2013-11-08 23:36:00,38.5,22.4,29.89,NW,307,9.2,15.0,52,0.00,CLR,FEW,0.00,0.0,WeatherDisplay:10.37,2013-11-09 04:36:00,
2013-11-08 23:41:00,38.6,22.9,29.90,NW,307,5.9,10.4,53,0.00,CLR,FEW,0.00,0.0,WeatherDisplay:10.37,2013-11-09 04:41:00,
2013-11-08 23:46:00,38.5,22.8,29.90,NW,307,3.7,6.9,53,0.00,CLR,FEW,0.00,0.0,WeatherDisplay:10.37,2013-11-09 04:46:00,
2013-11-08 23:51:00,38.5,22.8,29.90,NW,307,5.9,8.1,53,0.00,CLR,FEW,0.00,0.0,WeatherDisplay:10.37,2013-11-09 04:51:00,
2013-11-08 23:56:00,38.4,22.7,29.91,NW,307,4.9,9.2,53,0.00,CLR,FEW,0.00,0.0,WeatherDisplay:10.37,2013-11-09 04:56:00,